• Join FlightAware (Why Join?)
  • Login
  • US Flag 
04:32AM EST


 

Airport Tracker/Info


-or-


 

Live Flight TrackerFlight Track Log ✈ SKW4622 ✈ 27-Apr-2013 ✈ KSLC - KJAC

Flight Track Log - Related Links

Times and Time Zones

All times are in EDT time to prevent confusion due to time zone crossing. See the SKW4622 flight status page for this flight to view local times or setup timezone preferences in your user account.

Time Position Orientation Groundspeed Altitude Reporting Facility
EDT Latitude Longitude Course Direction KTS MPH feet Rate Location/Type
10:23PM 40.7778 -111.9975 50° Northeast 167 192 4,900  Level Salt Lake Center
10:23PM 40.7636 -112.0025 195° South 165 190 5,700 2,100 Climbing Salt Lake Center
10:24PM 40.7556 -112.0703 261° West 218 251 8,000 2,220 Climbing Salt Lake Center
10:25PM 40.8053 -112.1303 318° Northwest 246 283 10,600 2,820 Climbing Salt Lake Center
10:26PM 41.0080 -112.1698 81° East  Level FlightAware Approximate
10:26PM 40.8553 -112.1933 316° Northwest 248 285 13,800  Level Salt Lake Center
10:27PM 41.0579 -112.0465 49° Northeast  Level FlightAware Approximate
10:27PM 40.9289 -112.1961 358° North 300 345 15,500  Level Salt Lake Center
10:28PM 41.1278 -111.9470 50° Northeast  Level FlightAware Approximate
10:28PM 41.0367 -112.1397 22° Northeast 349 402 17,400  Level Salt Lake Center
10:29PM 41.1381 -112.0869 21° North 385 443 18,700 2,040 Climbing Salt Lake Center
10:30PM 41.2403 -112.0333 22° Northeast 390 449 21,600 2,940 Climbing Salt Lake Center
10:31PM 41.3356 -111.9833 22° Northeast 368 423 24,700 2,400 Climbing Salt Lake Center
10:32PM 41.4289 -111.9336 22° Northeast 360 414 26,500 1,080 Climbing Salt Lake Center
10:33PM 41.5256 -111.8822 22° Northeast 376 433 27,000 240 Climbing Salt Lake Center
10:34PM 41.6236 -111.8297 22° Northeast 379 436 27,000  Level Salt Lake Center
10:35PM 41.7206 -111.7783 22° Northeast 376 433 27,000  Level Salt Lake Center
10:36PM 41.8158 -111.7272 22° Northeast 370 426 27,000  Level Salt Lake Center
10:37PM 41.9111 -111.6767 22° Northeast 368 423 27,000  Level Salt Lake Center
10:38PM 42.0106 -111.6431 14° North 370 426 27,000  Level Salt Lake Center
10:40PM 42.1103 -111.6214 North 365 420 27,000  Level Salt Lake Center
10:41PM 42.2106 -111.5994 North 364 419 27,000  Level Salt Lake Center
10:42PM 42.3319 -111.5697 10° North 369 425 27,000  Level Salt Lake Center
10:43PM 42.4322 -111.5417 12° North 368 423 27,000  Level Salt Lake Center
10:44PM 42.5186 -111.4617 34° Northeast 372 428 27,000  Level Salt Lake Center
10:45PM 42.6069 -111.3886 31° Northeast 370 426 27,000  Level Salt Lake Center
10:46PM 42.6936 -111.3158 32° Northeast 368 423 27,000  Level Salt Lake Center
10:47PM 42.7850 -111.2389 32° Northeast 368 423 27,000 -300 Level Salt Lake Center
10:48PM 42.8669 -111.1692 32° Northeast 363 418 26,500 -840 Descending Salt Lake Center
10:49PM 42.9594 -111.0894 32° Northeast 353 406 25,300 -1,080 Descending Salt Lake Center
10:50PM 43.0411 -111.0222 31° Northeast 356 410 24,400 -960 Descending Salt Lake Center
10:51PM 43.1244 -110.9492 33° Northeast 367 422 23,400 -1,200 Descending Salt Lake Center
10:52PM 43.2200 -110.8661 32° Northeast 365 420 22,000 -1,380 Descending Salt Lake Center
10:53PM 43.2983 -110.7981 32° Northeast 355 409 20,600 -1,500 Descending Salt Lake Center
10:54PM 43.3767 -110.7300 32° Northeast 343 395 19,000 -1,440 Descending Salt Lake Center
10:55PM 43.4583 -110.6597 32° Northeast 346 398 17,700 -1,380 Descending Salt Lake Center
10:56PM 43.5358 -110.5919 32° Northeast 339 390 16,300 -1,500 Descending Salt Lake Center
10:57PM 43.6253 -110.5131 33° Northeast 326 375 14,700 -1,260 Descending Salt Lake Center
10:58PM 43.7039 -110.4450 32° Northeast 334 384 13,800 -840 Descending Salt Lake Center
10:59PM 43.7789 -110.4069 20° North 304 350 13,000 -480 Descending Salt Lake Center
11:00PM 43.8183 -110.4728 310° West 235 270 12,900 -600 Descending Salt Lake Center
11:01PM 43.8061 -110.5567 259° West 223 257 11,800 -1,200 Descending Salt Lake Center
11:02PM 43.7744 -110.6303 239° Southwest 227 261 10,500 -1,380 Descending Salt Lake Center
11:03PM 43.7289 -110.6772 217° Southwest 212 244 9,100 -1,380 Descending Salt Lake Center